sensor_id;sensor_type;location;lat;lon;timestamp;P1;durP1;ratioP1;P2;durP2;ratioP2
68806;SDS011;55800;54.272;18.558;2022-11-15T00:03:19;65.05;;;32.33;;
68806;SDS011;55800;54.272;18.558;2022-11-15T00:06:09;68.20;;;28.77;;
68806;SDS011;55800;54.272;18.558;2022-11-15T00:08:57;72.28;;;33.03;;
68806;SDS011;55800;54.272;18.558;2022-11-15T00:11:46;71.10;;;31.42;;
68806;SDS011;55800;54.272;18.558;2022-11-15T00:14:35;59.88;;;30.77;;
68806;SDS011;55800;54.272;18.558;2022-11-15T00:17:24;70.28;;;30.50;;
68806;SDS011;55800;54.272;18.558;2022-11-15T00:20:11;71.72;;;30.90;;
68806;SDS011;55800;54.272;18.558;2022-11-15T00:23:00;72.28;;;30.80;;
68806;SDS011;55800;54.272;18.558;2022-11-15T00:25:54;71.03;;;33.20;;
68806;SDS011;55800;54.272;18.558;2022-11-15T00:28:44;63.75;;;28.70;;
68806;SDS011;55800;54.272;18.558;2022-11-15T00:31:33;68.32;;;28.75;;
68806;SDS011;55800;54.272;18.558;2022-11-15T00:37:08;68.72;;;28.08;;
68806;SDS011;55800;54.272;18.558;2022-11-15T00:39:56;70.75;;;29.33;;
68806;SDS011;55800;54.272;18.558;2022-11-15T00:42:43;60.10;;;26.63;;
68806;SDS011;55800;54.272;18.558;2022-11-15T00:45:32;66.63;;;26.55;;
68806;SDS011;55800;54.272;18.558;2022-11-15T00:48:21;62.92;;;30.77;;
68806;SDS011;55800;54.272;18.558;2022-11-15T00:51:10;61.53;;;27.35;;
68806;SDS011;55800;54.272;18.558;2022-11-15T00:53:58;67.85;;;26.27;;
68806;SDS011;55800;54.272;18.558;2022-11-15T00:56:45;64.70;;;26.58;;
68806;SDS011;55800;54.272;18.558;2022-11-15T00:59:33;60.63;;;26.75;;
68806;SDS011;55800;54.272;18.558;2022-11-15T01:02:21;72.97;;;28.77;;
68806;SDS011;55800;54.272;18.558;2022-11-15T01:05:11;69.07;;;29.35;;
68806;SDS011;55800;54.272;18.558;2022-11-15T01:10:46;68.38;;;29.60;;
68806;SDS011;55800;54.272;18.558;2022-11-15T01:13:34;85.25;;;33.00;;
68806;SDS011;55800;54.272;18.558;2022-11-15T01:16:22;71.95;;;30.92;;
68806;SDS011;55800;54.272;18.558;2022-11-15T01:19:10;78.18;;;29.73;;
68806;SDS011;55800;54.272;18.558;2022-11-15T01:21:59;73.38;;;33.00;;
68806;SDS011;55800;54.272;18.558;2022-11-15T01:24:48;71.10;;;28.52;;
68806;SDS011;55800;54.272;18.558;2022-11-15T01:27:36;77.57;;;30.08;;
68806;SDS011;55800;54.272;18.558;2022-11-15T01:30:24;83.07;;;31.20;;
68806;SDS011;55800;54.272;18.558;2022-11-15T01:33:11;85.55;;;34.03;;
68806;SDS011;55800;54.272;18.558;2022-11-15T01:36:02;74.57;;;29.63;;
68806;SDS011;55800;54.272;18.558;2022-11-15T01:38:54;78.25;;;33.22;;
68806;SDS011;55800;54.272;18.558;2022-11-15T01:41:43;86.10;;;35.55;;
68806;SDS011;55800;54.272;18.558;2022-11-15T01:44:34;75.78;;;33.70;;
68806;SDS011;55800;54.272;18.558;2022-11-15T01:47:29;76.28;;;32.58;;
68806;SDS011;55800;54.272;18.558;2022-11-15T01:50:20;82.82;;;36.40;;
68806;SDS011;55800;54.272;18.558;2022-11-15T01:53:11;93.38;;;36.25;;
68806;SDS011;55800;54.272;18.558;2022-11-15T01:56:01;93.57;;;36.58;;
68806;SDS011;55800;54.272;18.558;2022-11-15T01:58:52;97.70;;;38.15;;
68806;SDS011;55800;54.272;18.558;2022-11-15T02:01:42;85.40;;;33.83;;
68806;SDS011;55800;54.272;18.558;2022-11-15T02:04:31;82.93;;;35.63;;
68806;SDS011;55800;54.272;18.558;2022-11-15T02:07:21;77.82;;;31.60;;
68806;SDS011;55800;54.272;18.558;2022-11-15T02:10:10;76.38;;;32.13;;
68806;SDS011;55800;54.272;18.558;2022-11-15T02:13:01;84.22;;;33.17;;
68806;SDS011;55800;54.272;18.558;2022-11-15T02:18:48;80.72;;;31.95;;
68806;SDS011;55800;54.272;18.558;2022-11-15T02:21:41;77.03;;;29.73;;
68806;SDS011;55800;54.272;18.558;2022-11-15T02:24:47;70.55;;;30.88;;
68806;SDS011;55800;54.272;18.558;2022-11-15T02:28:02;74.20;;;31.42;;
68806;SDS011;55800;54.272;18.558;2022-11-15T02:31:14;72.15;;;30.02;;
68806;SDS011;55800;54.272;18.558;2022-11-15T02:34:15;82.32;;;31.85;;
68806;SDS011;55800;54.272;18.558;2022-11-15T02:37:11;66.90;;;30.30;;
68806;SDS011;55800;54.272;18.558;2022-11-15T02:40:06;75.40;;;31.88;;
68806;SDS011;55800;54.272;18.558;2022-11-15T02:43:00;75.15;;;30.63;;
68806;SDS011;55800;54.272;18.558;2022-11-15T02:46:13;72.70;;;29.40;;
68806;SDS011;55800;54.272;18.558;2022-11-15T02:49:06;80.57;;;30.50;;
68806;SDS011;55800;54.272;18.558;2022-11-15T02:51:54;84.03;;;32.20;;
68806;SDS011;55800;54.272;18.558;2022-11-15T02:54:42;80.40;;;31.08;;
68806;SDS011;55800;54.272;18.558;2022-11-15T02:57:42;78.63;;;34.08;;
68806;SDS011;55800;54.272;18.558;2022-11-15T03:00:41;69.05;;;28.40;;
68806;SDS011;55800;54.272;18.558;2022-11-15T03:03:41;86.47;;;32.03;;
68806;SDS011;55800;54.272;18.558;2022-11-15T03:06:42;87.43;;;32.70;;
68806;SDS011;55800;54.272;18.558;2022-11-15T03:09:38;88.35;;;32.35;;
68806;SDS011;55800;54.272;18.558;2022-11-15T03:12:34;79.88;;;32.03;;
68806;SDS011;55800;54.272;18.558;2022-11-15T03:15:29;86.47;;;31.23;;
68806;SDS011;55800;54.272;18.558;2022-11-15T03:18:25;89.20;;;32.63;;
68806;SDS011;55800;54.272;18.558;2022-11-15T03:21:19;87.50;;;30.73;;
68806;SDS011;55800;54.272;18.558;2022-11-15T03:24:09;83.82;;;31.10;;
68806;SDS011;55800;54.272;18.558;2022-11-15T03:26:59;88.15;;;35.55;;
68806;SDS011;55800;54.272;18.558;2022-11-15T03:32:58;86.55;;;33.13;;
68806;SDS011;55800;54.272;18.558;2022-11-15T03:35:49;84.53;;;33.53;;
68806;SDS011;55800;54.272;18.558;2022-11-15T03:38:39;91.80;;;34.25;;
68806;SDS011;55800;54.272;18.558;2022-11-15T03:41:29;75.25;;;32.92;;
68806;SDS011;55800;54.272;18.558;2022-11-15T03:44:27;80.80;;;33.25;;
68806;SDS011;55800;54.272;18.558;2022-11-15T03:47:31;77.82;;;31.58;;
68806;SDS011;55800;54.272;18.558;2022-11-15T03:50:22;91.18;;;34.40;;
68806;SDS011;55800;54.272;18.558;2022-11-15T03:56:00;78.03;;;30.13;;
68806;SDS011;55800;54.272;18.558;2022-11-15T03:58:48;72.68;;;28.15;;
68806;SDS011;55800;54.272;18.558;2022-11-15T04:01:37;83.45;;;32.40;;
68806;SDS011;55800;54.272;18.558;2022-11-15T04:04:24;81.47;;;31.20;;
68806;SDS011;55800;54.272;18.558;2022-11-15T04:07:12;79.88;;;29.92;;
68806;SDS011;55800;54.272;18.558;2022-11-15T04:10:00;73.95;;;29.48;;
68806;SDS011;55800;54.272;18.558;2022-11-15T04:12:50;68.00;;;28.52;;
68806;SDS011;55800;54.272;18.558;2022-11-15T04:15:37;79.88;;;34.13;;
68806;SDS011;55800;54.272;18.558;2022-11-15T04:18:25;79.00;;;34.30;;
68806;SDS011;55800;54.272;18.558;2022-11-15T04:21:13;80.47;;;29.73;;
68806;SDS011;55800;54.272;18.558;2022-11-15T04:24:18;73.60;;;30.42;;
68806;SDS011;55800;54.272;18.558;2022-11-15T04:27:06;95.55;;;34.13;;
68806;SDS011;55800;54.272;18.558;2022-11-15T04:29:56;79.22;;;33.78;;
68806;SDS011;55800;54.272;18.558;2022-11-15T04:32:44;86.00;;;34.88;;
68806;SDS011;55800;54.272;18.558;2022-11-15T04:35:32;102.18;;;38.28;;
68806;SDS011;55800;54.272;18.558;2022-11-15T04:38:21;87.07;;;34.13;;
68806;SDS011;55800;54.272;18.558;2022-11-15T04:41:09;95.70;;;33.47;;
68806;SDS011;55800;54.272;18.558;2022-11-15T04:43:57;90.30;;;33.25;;
68806;SDS011;55800;54.272;18.558;2022-11-15T04:46:46;88.95;;;35.15;;
68806;SDS011;55800;54.272;18.558;2022-11-15T04:49:34;82.72;;;32.47;;
68806;SDS011;55800;54.272;18.558;2022-11-15T04:52:22;84.90;;;30.73;;
68806;SDS011;55800;54.272;18.558;2022-11-15T04:55:10;96.50;;;34.75;;
68806;SDS011;55800;54.272;18.558;2022-11-15T04:57:58;96.68;;;31.10;;
68806;SDS011;55800;54.272;18.558;2022-11-15T05:00:47;84.93;;;32.43;;
68806;SDS011;55800;54.272;18.558;2022-11-15T05:03:35;72.70;;;31.13;;
68806;SDS011;55800;54.272;18.558;2022-11-15T05:06:40;91.93;;;32.75;;
68806;SDS011;55800;54.272;18.558;2022-11-15T05:09:28;83.85;;;33.53;;
68806;SDS011;55800;54.272;18.558;2022-11-15T05:12:16;76.35;;;27.77;;
68806;SDS011;55800;54.272;18.558;2022-11-15T05:15:04;69.38;;;27.20;;
68806;SDS011;55800;54.272;18.558;2022-11-15T05:17:56;59.30;;;24.05;;
68806;SDS011;55800;54.272;18.558;2022-11-15T05:20:46;63.42;;;26.40;;
68806;SDS011;55800;54.272;18.558;2022-11-15T05:23:34;67.15;;;24.85;;
68806;SDS011;55800;54.272;18.558;2022-11-15T05:26:23;71.35;;;25.90;;
68806;SDS011;55800;54.272;18.558;2022-11-15T05:29:11;70.68;;;26.90;;
68806;SDS011;55800;54.272;18.558;2022-11-15T05:31:59;60.08;;;25.67;;
68806;SDS011;55800;54.272;18.558;2022-11-15T05:34:47;70.82;;;27.30;;
68806;SDS011;55800;54.272;18.558;2022-11-15T05:37:36;65.05;;;27.13;;
68806;SDS011;55800;54.272;18.558;2022-11-15T05:40:24;70.25;;;24.17;;
68806;SDS011;55800;54.272;18.558;2022-11-15T05:43:12;64.07;;;24.10;;
68806;SDS011;55800;54.272;18.558;2022-11-15T05:46:01;56.17;;;24.23;;
68806;SDS011;55800;54.272;18.558;2022-11-15T05:51:39;37.70;;;17.15;;
68806;SDS011;55800;54.272;18.558;2022-11-15T05:54:32;51.45;;;21.58;;
68806;SDS011;55800;54.272;18.558;2022-11-15T05:57:21;52.53;;;21.08;;
68806;SDS011;55800;54.272;18.558;2022-11-15T06:00:10;47.23;;;21.00;;
68806;SDS011;55800;54.272;18.558;2022-11-15T06:02:59;52.97;;;19.35;;
68806;SDS011;55800;54.272;18.558;2022-11-15T06:05:47;53.85;;;21.60;;
68806;SDS011;55800;54.272;18.558;2022-11-15T06:08:35;54.55;;;23.33;;
68806;SDS011;55800;54.272;18.558;2022-11-15T06:11:24;47.78;;;20.58;;
68806;SDS011;55800;54.272;18.558;2022-11-15T06:14:12;58.88;;;21.10;;
68806;SDS011;55800;54.272;18.558;2022-11-15T06:17:00;55.05;;;24.30;;
68806;SDS011;55800;54.272;18.558;2022-11-15T06:19:55;51.13;;;20.83;;
68806;SDS011;55800;54.272;18.558;2022-11-15T06:22:43;49.88;;;21.73;;
68806;SDS011;55800;54.272;18.558;2022-11-15T06:25:31;54.92;;;23.15;;
68806;SDS011;55800;54.272;18.558;2022-11-15T06:28:20;46.58;;;19.70;;
68806;SDS011;55800;54.272;18.558;2022-11-15T06:31:08;49.80;;;20.05;;
68806;SDS011;55800;54.272;18.558;2022-11-15T06:33:57;38.55;;;19.20;;
68806;SDS011;55800;54.272;18.558;2022-11-15T06:36:45;39.45;;;17.80;;
68806;SDS011;55800;54.272;18.558;2022-11-15T06:39:33;41.97;;;16.75;;
68806;SDS011;55800;54.272;18.558;2022-11-15T06:42:21;42.63;;;19.67;;
68806;SDS011;55800;54.272;18.558;2022-11-15T06:45:11;55.95;;;21.98;;
68806;SDS011;55800;54.272;18.558;2022-11-15T06:47:59;54.58;;;22.92;;
68806;SDS011;55800;54.272;18.558;2022-11-15T06:50:49;50.40;;;23.13;;
68806;SDS011;55800;54.272;18.558;2022-11-15T06:53:38;41.30;;;20.08;;
68806;SDS011;55800;54.272;18.558;2022-11-15T06:56:26;44.97;;;19.65;;
68806;SDS011;55800;54.272;18.558;2022-11-15T06:59:14;46.58;;;20.58;;
68806;SDS011;55800;54.272;18.558;2022-11-15T07:02:03;41.83;;;19.98;;
68806;SDS011;55800;54.272;18.558;2022-11-15T07:04:51;44.75;;;20.40;;
68806;SDS011;55800;54.272;18.558;2022-11-15T07:07:39;49.83;;;19.08;;
68806;SDS011;55800;54.272;18.558;2022-11-15T07:10:27;49.00;;;20.40;;
68806;SDS011;55800;54.272;18.558;2022-11-15T07:13:16;48.72;;;21.45;;
68806;SDS011;55800;54.272;18.558;2022-11-15T07:16:04;50.38;;;21.45;;
68806;SDS011;55800;54.272;18.558;2022-11-15T07:18:55;44.28;;;22.15;;
68806;SDS011;55800;54.272;18.558;2022-11-15T07:21:43;43.83;;;20.02;;
68806;SDS011;55800;54.272;18.558;2022-11-15T07:24:32;47.92;;;20.08;;
68806;SDS011;55800;54.272;18.558;2022-11-15T07:27:20;45.30;;;21.08;;
68806;SDS011;55800;54.272;18.558;2022-11-15T07:30:08;50.85;;;22.10;;
68806;SDS011;55800;54.272;18.558;2022-11-15T07:33:00;44.72;;;18.13;;
68806;SDS011;55800;54.272;18.558;2022-11-15T07:35:49;51.65;;;21.70;;
68806;SDS011;55800;54.272;18.558;2022-11-15T07:44:15;40.13;;;18.17;;
68806;SDS011;55800;54.272;18.558;2022-11-15T07:47:02;47.78;;;19.77;;
68806;SDS011;55800;54.272;18.558;2022-11-15T07:49:52;50.65;;;20.35;;
68806;SDS011;55800;54.272;18.558;2022-11-15T07:52:41;45.47;;;18.25;;
68806;SDS011;55800;54.272;18.558;2022-11-15T07:55:29;43.75;;;18.73;;
68806;SDS011;55800;54.272;18.558;2022-11-15T07:58:17;50.28;;;23.08;;
68806;SDS011;55800;54.272;18.558;2022-11-15T08:01:06;57.63;;;21.67;;
68806;SDS011;55800;54.272;18.558;2022-11-15T08:03:56;47.17;;;20.05;;
68806;SDS011;55800;54.272;18.558;2022-11-15T08:06:43;49.70;;;20.77;;
68806;SDS011;55800;54.272;18.558;2022-11-15T08:09:33;52.38;;;20.73;;
68806;SDS011;55800;54.272;18.558;2022-11-15T08:12:21;41.28;;;21.60;;
68806;SDS011;55800;54.272;18.558;2022-11-15T08:15:09;53.10;;;21.92;;
68806;SDS011;55800;54.272;18.558;2022-11-15T08:18:01;44.60;;;18.90;;
68806;SDS011;55800;54.272;18.558;2022-11-15T08:20:50;48.47;;;20.98;;
68806;SDS011;55800;54.272;18.558;2022-11-15T08:23:38;46.10;;;19.45;;
68806;SDS011;55800;54.272;18.558;2022-11-15T08:26:27;45.78;;;20.98;;
68806;SDS011;55800;54.272;18.558;2022-11-15T08:29:16;46.15;;;21.40;;
68806;SDS011;55800;54.272;18.558;2022-11-15T08:32:04;54.10;;;24.13;;
68806;SDS011;55800;54.272;18.558;2022-11-15T08:34:52;42.15;;;18.60;;
68806;SDS011;55800;54.272;18.558;2022-11-15T08:37:40;52.03;;;22.17;;
68806;SDS011;55800;54.272;18.558;2022-11-15T08:40:28;57.88;;;21.42;;
68806;SDS011;55800;54.272;18.558;2022-11-15T08:43:17;49.67;;;20.10;;
68806;SDS011;55800;54.272;18.558;2022-11-15T08:46:05;43.05;;;20.17;;
68806;SDS011;55800;54.272;18.558;2022-11-15T08:48:55;37.30;;;17.45;;
68806;SDS011;55800;54.272;18.558;2022-11-15T08:51:43;45.80;;;20.42;;
68806;SDS011;55800;54.272;18.558;2022-11-15T08:54:31;47.85;;;21.55;;
68806;SDS011;55800;54.272;18.558;2022-11-15T08:57:19;47.33;;;20.20;;
68806;SDS011;55800;54.272;18.558;2022-11-15T09:00:09;41.65;;;18.45;;
68806;SDS011;55800;54.272;18.558;2022-11-15T09:02:58;39.72;;;20.45;;
68806;SDS011;55800;54.272;18.558;2022-11-15T09:05:46;40.85;;;18.65;;
68806;SDS011;55800;54.272;18.558;2022-11-15T09:08:34;39.67;;;19.83;;
68806;SDS011;55800;54.272;18.558;2022-11-15T09:11:32;44.95;;;20.25;;
68806;SDS011;55800;54.272;18.558;2022-11-15T09:14:21;43.40;;;19.95;;
68806;SDS011;55800;54.272;18.558;2022-11-15T09:17:11;41.60;;;19.33;;
68806;SDS011;55800;54.272;18.558;2022-11-15T09:19:58;46.95;;;20.25;;
68806;SDS011;55800;54.272;18.558;2022-11-15T09:22:47;39.35;;;19.13;;
68806;SDS011;55800;54.272;18.558;2022-11-15T09:25:35;39.63;;;17.88;;
68806;SDS011;55800;54.272;18.558;2022-11-15T09:28:23;42.08;;;18.35;;
68806;SDS011;55800;54.272;18.558;2022-11-15T09:31:12;44.30;;;17.90;;
68806;SDS011;55800;54.272;18.558;2022-11-15T09:34:07;41.28;;;17.10;;
68806;SDS011;55800;54.272;18.558;2022-11-15T09:36:55;45.58;;;19.63;;
68806;SDS011;55800;54.272;18.558;2022-11-15T09:39:43;39.95;;;18.35;;
68806;SDS011;55800;54.272;18.558;2022-11-15T09:42:43;38.85;;;16.63;;
68806;SDS011;55800;54.272;18.558;2022-11-15T09:45:47;42.78;;;19.20;;
68806;SDS011;55800;54.272;18.558;2022-11-15T09:48:50;34.25;;;15.98;;
68806;SDS011;55800;54.272;18.558;2022-11-15T09:51:24;39.35;;;19.95;;
68806;SDS011;55800;54.272;18.558;2022-11-15T09:54:00;36.53;;;17.38;;
68806;SDS011;55800;54.272;18.558;2022-11-15T09:57:09;40.95;;;18.38;;
68806;SDS011;55800;54.272;18.558;2022-11-15T09:59:46;42.38;;;18.35;;
68806;SDS011;55800;54.272;18.558;2022-11-15T10:02:43;36.85;;;17.92;;
68806;SDS011;55800;54.272;18.558;2022-11-15T10:05:22;41.67;;;18.17;;
68806;SDS011;55800;54.272;18.558;2022-11-15T10:07:56;44.25;;;16.85;;
68806;SDS011;55800;54.272;18.558;2022-11-15T10:10:30;37.15;;;17.58;;
68806;SDS011;55800;54.272;18.558;2022-11-15T10:13:06;41.10;;;19.33;;
68806;SDS011;55800;54.272;18.558;2022-11-15T10:15:42;39.35;;;17.80;;
68806;SDS011;55800;54.272;18.558;2022-11-15T10:18:15;43.42;;;21.15;;
68806;SDS011;55800;54.272;18.558;2022-11-15T10:20:48;42.28;;;18.05;;
68806;SDS011;55800;54.272;18.558;2022-11-15T10:23:20;37.03;;;17.65;;
68806;SDS011;55800;54.272;18.558;2022-11-15T10:25:51;44.55;;;19.20;;
68806;SDS011;55800;54.272;18.558;2022-11-15T10:28:27;45.30;;;18.42;;
68806;SDS011;55800;54.272;18.558;2022-11-15T10:30:58;39.13;;;17.70;;
68806;SDS011;55800;54.272;18.558;2022-11-15T10:33:32;41.85;;;17.83;;
68806;SDS011;55800;54.272;18.558;2022-11-15T10:36:17;37.17;;;18.52;;
68806;SDS011;55800;54.272;18.558;2022-11-15T10:41:40;53.55;;;26.30;;
68806;SDS011;55800;54.272;18.558;2022-11-15T10:44:20;42.50;;;19.60;;
68806;SDS011;55800;54.272;18.558;2022-11-15T10:49:54;44.88;;;19.73;;
68806;SDS011;55800;54.272;18.558;2022-11-15T10:52:25;38.72;;;19.42;;
68806;SDS011;55800;54.272;18.558;2022-11-15T10:54:58;43.58;;;18.35;;
68806;SDS011;55800;54.272;18.558;2022-11-15T10:57:37;45.15;;;20.75;;
68806;SDS011;55800;54.272;18.558;2022-11-15T11:00:13;44.05;;;20.30;;
68806;SDS011;55800;54.272;18.558;2022-11-15T11:02:58;39.67;;;17.60;;
68806;SDS011;55800;54.272;18.558;2022-11-15T11:05:29;48.47;;;22.13;;
68806;SDS011;55800;54.272;18.558;2022-11-15T11:08:19;42.33;;;19.08;;
68806;SDS011;55800;54.272;18.558;2022-11-15T11:10:55;44.65;;;19.17;;
68806;SDS011;55800;54.272;18.558;2022-11-15T11:13:30;44.08;;;22.17;;
68806;SDS011;55800;54.272;18.558;2022-11-15T11:16:15;49.65;;;19.63;;
68806;SDS011;55800;54.272;18.558;2022-11-15T11:19:17;42.63;;;19.00;;
68806;SDS011;55800;54.272;18.558;2022-11-15T11:22:00;49.60;;;21.90;;
68806;SDS011;55800;54.272;18.558;2022-11-15T11:24:35;43.15;;;19.52;;
68806;SDS011;55800;54.272;18.558;2022-11-15T11:27:16;41.20;;;18.77;;
68806;SDS011;55800;54.272;18.558;2022-11-15T11:29:58;38.40;;;19.52;;
68806;SDS011;55800;54.272;18.558;2022-11-15T11:32:39;48.00;;;25.75;;
68806;SDS011;55800;54.272;18.558;2022-11-15T11:35:29;55.33;;;23.30;;
68806;SDS011;55800;54.272;18.558;2022-11-15T11:38:06;49.70;;;22.02;;
68806;SDS011;55800;54.272;18.558;2022-11-15T11:40:51;51.60;;;22.02;;
68806;SDS011;55800;54.272;18.558;2022-11-15T11:43:43;38.88;;;20.75;;
68806;SDS011;55800;54.272;18.558;2022-11-15T11:46:30;45.60;;;20.80;;
68806;SDS011;55800;54.272;18.558;2022-11-15T11:49:15;54.67;;;20.45;;
68806;SDS011;55800;54.272;18.558;2022-11-15T11:51:51;45.50;;;23.45;;
68806;SDS011;55800;54.272;18.558;2022-11-15T11:54:25;45.72;;;20.75;;
68806;SDS011;55800;54.272;18.558;2022-11-15T11:57:03;51.25;;;21.73;;
68806;SDS011;55800;54.272;18.558;2022-11-15T11:59:43;54.00;;;20.58;;
68806;SDS011;55800;54.272;18.558;2022-11-15T12:02:18;52.72;;;21.75;;
68806;SDS011;55800;54.272;18.558;2022-11-15T12:04:57;49.53;;;21.38;;
68806;SDS011;55800;54.272;18.558;2022-11-15T12:07:36;50.53;;;21.90;;
68806;SDS011;55800;54.272;18.558;2022-11-15T12:10:12;44.08;;;20.50;;
68806;SDS011;55800;54.272;18.558;2022-11-15T12:12:49;47.72;;;21.17;;
68806;SDS011;55800;54.272;18.558;2022-11-15T12:15:25;44.28;;;22.50;;
68806;SDS011;55800;54.272;18.558;2022-11-15T12:18:00;58.70;;;22.83;;
68806;SDS011;55800;54.272;18.558;2022-11-15T12:20:30;49.95;;;21.92;;
68806;SDS011;55800;54.272;18.558;2022-11-15T12:23:04;48.30;;;21.85;;
68806;SDS011;55800;54.272;18.558;2022-11-15T12:25:41;56.55;;;24.30;;
68806;SDS011;55800;54.272;18.558;2022-11-15T12:28:15;53.15;;;23.13;;
68806;SDS011;55800;54.272;18.558;2022-11-15T12:30:53;74.65;;;23.58;;
68806;SDS011;55800;54.272;18.558;2022-11-15T12:33:34;59.75;;;25.55;;
68806;SDS011;55800;54.272;18.558;2022-11-15T12:36:08;71.25;;;24.95;;
68806;SDS011;55800;54.272;18.558;2022-11-15T12:38:50;61.03;;;23.15;;
68806;SDS011;55800;54.272;18.558;2022-11-15T12:41:22;59.63;;;23.17;;
68806;SDS011;55800;54.272;18.558;2022-11-15T12:43:53;50.72;;;22.70;;
68806;SDS011;55800;54.272;18.558;2022-11-15T12:49:44;57.97;;;22.35;;
68806;SDS011;55800;54.272;18.558;2022-11-15T12:52:14;63.40;;;24.15;;
68806;SDS011;55800;54.272;18.558;2022-11-15T12:55:00;47.10;;;24.05;;
68806;SDS011;55800;54.272;18.558;2022-11-15T12:57:50;54.83;;;21.50;;
68806;SDS011;55800;54.272;18.558;2022-11-15T13:03:23;53.00;;;24.20;;
68806;SDS011;55800;54.272;18.558;2022-11-15T13:05:59;49.30;;;23.50;;
68806;SDS011;55800;54.272;18.558;2022-11-15T13:08:47;51.45;;;24.40;;
68806;SDS011;55800;54.272;18.558;2022-11-15T13:17:25;79.32;;;33.95;;
68806;SDS011;55800;54.272;18.558;2022-11-15T13:20:09;72.10;;;30.90;;
68806;SDS011;55800;54.272;18.558;2022-11-15T13:22:52;71.63;;;29.90;;
68806;SDS011;55800;54.272;18.558;2022-11-15T13:25:47;75.05;;;30.80;;
68806;SDS011;55800;54.272;18.558;2022-11-15T13:28:31;56.92;;;24.35;;
68806;SDS011;55800;54.272;18.558;2022-11-15T13:31:13;61.35;;;26.00;;
68806;SDS011;55800;54.272;18.558;2022-11-15T13:33:55;65.20;;;27.48;;
68806;SDS011;55800;54.272;18.558;2022-11-15T13:36:29;61.40;;;25.38;;
68806;SDS011;55800;54.272;18.558;2022-11-15T13:39:02;63.53;;;25.38;;
68806;SDS011;55800;54.272;18.558;2022-11-15T13:41:34;50.45;;;21.75;;
68806;SDS011;55800;54.272;18.558;2022-11-15T13:44:19;57.37;;;24.17;;
68806;SDS011;55800;54.272;18.558;2022-11-15T13:46:52;56.97;;;23.42;;
68806;SDS011;55800;54.272;18.558;2022-11-15T13:49:31;55.90;;;23.52;;
68806;SDS011;55800;54.272;18.558;2022-11-15T13:52:04;55.03;;;24.48;;
68806;SDS011;55800;54.272;18.558;2022-11-15T13:54:36;59.08;;;23.30;;
68806;SDS011;55800;54.272;18.558;2022-11-15T13:57:12;59.72;;;24.02;;
68806;SDS011;55800;54.272;18.558;2022-11-15T13:59:44;51.40;;;22.30;;
68806;SDS011;55800;54.272;18.558;2022-11-15T14:02:16;51.60;;;21.10;;
68806;SDS011;55800;54.272;18.558;2022-11-15T14:04:49;52.38;;;21.50;;
68806;SDS011;55800;54.272;18.558;2022-11-15T14:07:22;49.80;;;20.85;;
68806;SDS011;55800;54.272;18.558;2022-11-15T14:09:55;44.38;;;20.90;;
68806;SDS011;55800;54.272;18.558;2022-11-15T14:12:29;54.55;;;21.83;;
68806;SDS011;55800;54.272;18.558;2022-11-15T14:15:01;53.83;;;21.98;;
68806;SDS011;55800;54.272;18.558;2022-11-15T14:17:46;42.92;;;19.25;;
68806;SDS011;55800;54.272;18.558;2022-11-15T14:20:20;39.63;;;18.38;;
68806;SDS011;55800;54.272;18.558;2022-11-15T14:22:59;51.58;;;19.55;;
68806;SDS011;55800;54.272;18.558;2022-11-15T14:25:30;46.72;;;20.75;;
68806;SDS011;55800;54.272;18.558;2022-11-15T14:28:14;53.80;;;21.05;;
68806;SDS011;55800;54.272;18.558;2022-11-15T14:30:57;47.15;;;20.05;;
68806;SDS011;55800;54.272;18.558;2022-11-15T14:33:29;43.13;;;19.75;;
68806;SDS011;55800;54.272;18.558;2022-11-15T14:36:02;43.67;;;18.67;;
68806;SDS011;55800;54.272;18.558;2022-11-15T14:38:34;46.72;;;19.77;;
68806;SDS011;55800;54.272;18.558;2022-11-15T14:41:04;45.63;;;18.88;;
68806;SDS011;55800;54.272;18.558;2022-11-15T14:43:33;47.90;;;20.08;;
68806;SDS011;55800;54.272;18.558;2022-11-15T14:46:02;42.10;;;20.42;;
68806;SDS011;55800;54.272;18.558;2022-11-15T14:48:31;54.47;;;21.15;;
68806;SDS011;55800;54.272;18.558;2022-11-15T14:51:01;48.65;;;21.70;;
68806;SDS011;55800;54.272;18.558;2022-11-15T14:53:30;45.13;;;20.92;;
68806;SDS011;55800;54.272;18.558;2022-11-15T14:56:01;46.15;;;20.25;;
68806;SDS011;55800;54.272;18.558;2022-11-15T14:58:31;47.72;;;19.52;;
68806;SDS011;55800;54.272;18.558;2022-11-15T15:03:30;40.67;;;18.15;;
68806;SDS011;55800;54.272;18.558;2022-11-15T15:05:59;50.15;;;21.20;;
68806;SDS011;55800;54.272;18.558;2022-11-15T15:08:28;51.70;;;21.58;;
68806;SDS011;55800;54.272;18.558;2022-11-15T15:10:58;43.60;;;18.23;;
68806;SDS011;55800;54.272;18.558;2022-11-15T15:13:29;44.78;;;18.70;;
68806;SDS011;55800;54.272;18.558;2022-11-15T15:15:58;42.15;;;20.17;;
68806;SDS011;55800;54.272;18.558;2022-11-15T15:18:27;40.15;;;18.52;;
68806;SDS011;55800;54.272;18.558;2022-11-15T15:23:33;44.95;;;18.85;;
68806;SDS011;55800;54.272;18.558;2022-11-15T15:26:02;39.55;;;17.10;;
68806;SDS011;55800;54.272;18.558;2022-11-15T15:28:33;48.60;;;21.75;;
68806;SDS011;55800;54.272;18.558;2022-11-15T15:31:04;45.95;;;19.70;;
68806;SDS011;55800;54.272;18.558;2022-11-15T15:33:33;48.05;;;20.08;;
68806;SDS011;55800;54.272;18.558;2022-11-15T15:36:03;41.45;;;20.30;;
68806;SDS011;55800;54.272;18.558;2022-11-15T15:38:32;44.50;;;18.90;;
68806;SDS011;55800;54.272;18.558;2022-11-15T15:41:02;40.85;;;20.70;;
68806;SDS011;55800;54.272;18.558;2022-11-15T15:43:32;39.75;;;19.25;;
68806;SDS011;55800;54.272;18.558;2022-11-15T15:46:01;38.67;;;18.27;;
68806;SDS011;55800;54.272;18.558;2022-11-15T15:48:30;45.50;;;21.05;;
68806;SDS011;55800;54.272;18.558;2022-11-15T15:51:04;52.30;;;23.27;;
68806;SDS011;55800;54.272;18.558;2022-11-15T15:53:44;44.13;;;21.70;;
68806;SDS011;55800;54.272;18.558;2022-11-15T15:56:14;48.92;;;23.40;;
68806;SDS011;55800;54.272;18.558;2022-11-15T15:58:44;46.28;;;20.83;;
68806;SDS011;55800;54.272;18.558;2022-11-15T16:01:13;49.92;;;21.75;;
68806;SDS011;55800;54.272;18.558;2022-11-15T16:03:43;44.40;;;22.65;;
68806;SDS011;55800;54.272;18.558;2022-11-15T16:06:34;47.00;;;20.08;;
68806;SDS011;55800;54.272;18.558;2022-11-15T16:09:05;43.65;;;20.70;;
68806;SDS011;55800;54.272;18.558;2022-11-15T16:11:43;42.83;;;20.63;;
68806;SDS011;55800;54.272;18.558;2022-11-15T16:14:15;45.40;;;20.98;;
68806;SDS011;55800;54.272;18.558;2022-11-15T16:16:44;44.97;;;19.38;;
68806;SDS011;55800;54.272;18.558;2022-11-15T16:19:14;42.45;;;19.65;;
68806;SDS011;55800;54.272;18.558;2022-11-15T16:21:43;49.70;;;19.17;;
68806;SDS011;55800;54.272;18.558;2022-11-15T16:24:12;38.38;;;18.30;;
68806;SDS011;55800;54.272;18.558;2022-11-15T16:26:41;39.13;;;18.60;;
68806;SDS011;55800;54.272;18.558;2022-11-15T16:29:10;39.60;;;20.95;;
68806;SDS011;55800;54.272;18.558;2022-11-15T16:31:41;49.35;;;23.80;;
68806;SDS011;55800;54.272;18.558;2022-11-15T16:34:10;52.78;;;23.73;;